createdAt,value
2019-04-01T00:02:20.153Z,16.15
2019-04-01T00:04:47.553Z,10.60
2019-04-01T00:07:14.865Z,12.03
2019-04-01T00:09:42.263Z,12.05
2019-04-01T00:12:09.617Z,10.35
2019-04-01T00:14:36.814Z,11.97
2019-04-01T00:17:04.073Z,9.78
2019-04-01T00:19:31.429Z,11.55
2019-04-01T00:21:58.767Z,12.07
2019-04-01T00:24:26.170Z,12.80
2019-04-01T00:26:53.631Z,12.80
2019-04-01T00:29:20.945Z,9.95
2019-04-01T00:31:48.191Z,13.05
2019-04-01T00:34:15.715Z,13.50
2019-04-01T00:36:43.012Z,11.53
2019-04-01T00:39:10.263Z,10.35
2019-04-01T00:41:39.109Z,12.53
2019-04-01T00:44:08.080Z,11.50
2019-04-01T00:46:35.361Z,14.05
2019-04-01T00:49:02.633Z,10.72
2019-04-01T00:51:29.999Z,12.50
2019-04-01T00:53:57.317Z,12.47
2019-04-01T00:56:24.543Z,11.47
2019-04-01T00:58:51.780Z,10.43
2019-04-01T01:01:19.057Z,11.08
2019-04-01T01:03:46.288Z,10.48
2019-04-01T01:06:13.547Z,7.25
2019-04-01T01:08:40.744Z,7.90
2019-04-01T01:11:07.938Z,9.83
2019-04-01T01:13:35.161Z,8.85
2019-04-01T01:16:02.359Z,8.43
2019-04-01T01:18:31.339Z,9.90
2019-04-01T01:20:58.622Z,8.88
2019-04-01T01:23:25.898Z,9.90
2019-04-01T01:25:53.090Z,10.72
2019-04-01T01:28:20.396Z,9.00
2019-04-01T01:30:47.596Z,10.45
2019-04-01T01:33:14.882Z,10.85
2019-04-01T01:35:42.209Z,10.98
2019-04-01T01:38:09.692Z,8.78
2019-04-01T01:40:36.879Z,11.37
2019-04-01T01:43:04.188Z,8.60
2019-04-01T01:45:31.464Z,10.82
2019-04-01T01:47:58.677Z,11.03
2019-04-01T01:50:25.911Z,9.53
2019-04-01T01:52:53.131Z,9.40
2019-04-01T01:55:20.416Z,9.13
2019-04-01T01:57:47.666Z,10.03
2019-04-01T02:00:15.609Z,10.95
2019-04-01T02:02:42.827Z,9.55
2019-04-01T02:05:10.063Z,9.58
2019-04-01T02:07:37.256Z,9.28
2019-04-01T02:10:04.610Z,9.28
2019-04-01T02:12:31.919Z,9.63
2019-04-01T02:14:59.256Z,11.68
2019-04-01T02:17:26.460Z,9.48
2019-04-01T02:19:53.853Z,13.45
2019-04-01T02:22:21.204Z,9.95
2019-04-01T02:24:48.596Z,8.48
2019-04-01T02:27:15.882Z,11.15
2019-04-01T02:29:43.183Z,9.05
2019-04-01T02:32:10.388Z,7.85
2019-04-01T02:34:37.572Z,7.92
2019-04-01T02:37:04.794Z,10.55
2019-04-01T02:39:31.992Z,9.33
2019-04-01T02:41:59.197Z,7.25
2019-04-01T02:44:26.477Z,7.67
2019-04-01T02:46:53.663Z,6.03
2019-04-01T02:49:22.567Z,9.43
2019-04-01T02:51:49.822Z,7.12
2019-04-01T02:54:17.169Z,8.08
2019-04-01T02:56:44.382Z,8.50
2019-04-01T02:59:11.766Z,9.80
2019-04-01T03:01:39.060Z,9.78
2019-04-01T03:04:06.371Z,10.78
2019-04-01T03:06:33.602Z,9.45
2019-04-01T03:09:00.793Z,8.90
2019-04-01T03:11:27.998Z,12.60
2019-04-01T03:13:55.224Z,8.23
2019-04-01T03:16:22.508Z,8.05
2019-04-01T03:18:49.721Z,10.60
2019-04-01T03:21:17.011Z,11.08
2019-04-01T03:23:44.250Z,8.85
2019-04-01T03:26:11.624Z,8.30
2019-04-01T03:28:38.935Z,7.55
2019-04-01T03:31:06.168Z,9.35
2019-04-01T03:33:33.526Z,8.65
2019-04-01T03:36:00.880Z,8.23
2019-04-01T03:38:28.334Z,12.05
2019-04-01T03:40:55.732Z,7.17
2019-04-01T03:43:22.956Z,10.03
2019-04-01T03:45:50.150Z,8.28
2019-04-01T03:48:17.409Z,8.08
2019-04-01T03:50:44.802Z,8.90
2019-04-01T03:53:12.081Z,7.50
2019-04-01T03:55:39.403Z,9.10
2019-04-01T03:58:06.733Z,8.48
2019-04-01T04:00:33.982Z,7.73
2019-04-01T04:03:01.435Z,9.40
2019-04-01T04:05:28.723Z,7.25
2019-04-01T04:07:56.005Z,10.58
2019-04-01T04:10:23.453Z,8.60
2019-04-01T04:12:50.884Z,8.48
2019-04-01T04:15:18.235Z,10.80
2019-04-01T04:17:45.541Z,8.15
2019-04-01T04:20:12.944Z,9.43
2019-04-01T04:22:40.144Z,11.43
2019-04-01T04:25:07.362Z,8.15
2019-04-01T04:27:34.709Z,11.38
2019-04-01T04:30:01.969Z,9.77
2019-04-01T04:32:29.304Z,9.23
2019-04-01T04:34:57.466Z,10.35
2019-04-01T04:37:25.036Z,11.97
2019-04-01T04:39:52.313Z,10.60
2019-04-01T04:42:19.717Z,9.23
2019-04-01T04:44:47.005Z,9.23
2019-04-01T04:47:14.305Z,10.05
2019-04-01T04:49:41.751Z,8.17
2019-04-01T04:52:08.937Z,12.03
2019-04-01T04:54:36.131Z,10.28
2019-04-01T04:57:03.404Z,8.78
2019-04-01T04:59:30.812Z,8.70
2019-04-01T05:01:58.079Z,8.23
2019-04-01T05:04:25.316Z,9.05
2019-04-01T05:06:52.685Z,10.82
2019-04-01T05:09:20.199Z,10.48
2019-04-01T05:11:47.734Z,6.87
2019-04-01T05:14:15.052Z,7.97
2019-04-01T05:16:42.260Z,7.70
2019-04-01T05:19:09.545Z,11.00
2019-04-01T05:21:36.942Z,7.90
2019-04-01T05:24:04.193Z,9.20
2019-04-01T05:26:31.399Z,7.12
2019-04-01T05:28:58.632Z,7.50
2019-04-01T05:31:26.056Z,6.93
2019-04-01T05:33:55.561Z,7.58
2019-04-01T05:36:22.564Z,6.75
2019-04-01T05:38:49.843Z,9.53
2019-04-01T05:41:17.078Z,6.80
2019-04-01T05:43:44.363Z,6.60
2019-04-01T05:46:11.684Z,7.42
2019-04-01T05:48:38.981Z,8.85
2019-04-01T05:51:06.226Z,8.28
2019-04-01T05:53:33.531Z,7.97
2019-04-01T05:56:00.846Z,10.23
2019-04-01T05:58:28.039Z,10.08
2019-04-01T06:00:58.689Z,6.72
2019-04-01T06:03:26.013Z,11.00
2019-04-01T06:05:53.620Z,8.73
2019-04-01T06:08:20.872Z,10.50
2019-04-01T06:10:49.788Z,9.30
2019-04-01T06:13:16.990Z,6.90
2019-04-01T06:15:44.192Z,10.13
2019-04-01T06:18:11.436Z,8.43
2019-04-01T06:20:38.648Z,11.63
2019-04-01T06:23:05.893Z,10.45
2019-04-01T06:25:33.189Z,7.95
2019-04-01T06:28:00.389Z,7.70
2019-04-01T06:30:27.588Z,8.88
2019-04-01T06:32:54.972Z,10.10
2019-04-01T06:35:22.191Z,9.95
2019-04-01T06:37:49.395Z,10.28
2019-04-01T06:40:16.662Z,10.00
2019-04-01T06:42:44.042Z,12.10
2019-04-01T06:45:11.238Z,8.55
2019-04-01T06:47:40.704Z,7.20
2019-04-01T06:50:07.933Z,12.45
2019-04-01T06:52:35.314Z,8.70
2019-04-01T06:55:02.702Z,10.10
2019-04-01T06:57:30.037Z,10.00
2019-04-01T06:59:57.427Z,10.18
2019-04-01T07:02:24.671Z,8.40
2019-04-01T07:04:52.050Z,8.55
2019-04-01T07:07:19.693Z,9.38
2019-04-01T07:09:50.419Z,9.80
2019-04-01T07:12:16.049Z,10.68
2019-04-01T07:14:43.358Z,9.50
2019-04-01T07:17:10.589Z,10.32
2019-04-01T07:19:37.936Z,10.40
2019-04-01T07:22:05.224Z,10.82
2019-04-01T07:24:32.463Z,10.70
2019-04-01T07:27:01.444Z,9.13
2019-04-01T07:29:28.708Z,12.20
2019-04-01T07:31:55.998Z,7.45
2019-04-01T07:34:23.190Z,11.60
2019-04-01T07:36:50.476Z,10.58
2019-04-01T07:39:17.899Z,7.35
2019-04-01T07:41:45.580Z,9.40
2019-04-01T07:44:12.828Z,7.55
2019-04-01T07:46:40.124Z,8.83
2019-04-01T07:49:07.399Z,7.20
2019-04-01T07:51:38.195Z,7.63
2019-04-01T07:54:04.469Z,9.15
2019-04-01T07:56:31.732Z,7.15
2019-04-01T07:58:58.935Z,8.83
2019-04-01T08:01:26.304Z,8.85
2019-04-01T08:03:53.622Z,7.08
2019-04-01T08:06:20.896Z,7.35
2019-04-01T08:08:48.188Z,9.15
2019-04-01T08:11:15.507Z,8.58
2019-04-01T08:13:42.827Z,8.05
2019-04-01T08:16:10.010Z,9.77
2019-04-01T08:18:37.372Z,9.53
2019-04-01T08:21:04.777Z,10.03
2019-04-01T08:23:31.963Z,8.75
2019-04-01T08:25:59.181Z,11.28
2019-04-01T08:28:26.546Z,10.28
2019-04-01T08:30:53.800Z,10.93
2019-04-01T08:33:21.139Z,9.95
2019-04-01T08:35:48.391Z,7.70
2019-04-01T08:38:15.600Z,9.87
2019-04-01T08:40:42.886Z,8.08
2019-04-01T08:43:10.226Z,8.68
2019-04-01T08:45:37.447Z,5.58
2019-04-01T08:48:04.664Z,5.58
2019-04-01T08:50:31.964Z,7.13
2019-04-01T08:53:00.890Z,7.40
2019-04-01T08:55:28.246Z,6.65
2019-04-01T08:57:55.530Z,5.60
2019-04-01T09:00:22.861Z,6.58
2019-04-01T09:02:50.111Z,7.37
2019-04-01T09:05:17.462Z,7.35
2019-04-01T09:07:44.739Z,6.90
2019-04-01T09:10:12.001Z,7.10
2019-04-01T09:12:39.276Z,8.20
2019-04-01T09:15:06.453Z,6.67
2019-04-01T09:17:33.952Z,8.40
2019-04-01T09:20:01.389Z,9.37
2019-04-01T09:22:28.789Z,8.03
2019-04-01T09:24:56.079Z,7.92
2019-04-01T09:27:26.018Z,9.50
2019-04-01T09:29:53.303Z,7.78
2019-04-01T09:32:20.684Z,10.05
2019-04-01T09:34:47.911Z,10.03
2019-04-01T09:37:15.601Z,8.18
2019-04-01T09:39:42.970Z,9.60
2019-04-01T09:42:10.364Z,11.65
2019-04-01T09:44:37.770Z,6.53
2019-04-01T09:47:05.145Z,9.48
2019-04-01T09:49:32.989Z,8.78
2019-04-01T09:52:03.734Z,10.80
2019-04-01T09:54:29.326Z,7.78
2019-04-01T09:56:56.607Z,8.90
2019-04-01T09:59:23.901Z,8.13
2019-04-01T10:01:51.183Z,8.88
2019-04-01T10:04:18.353Z,8.03
2019-04-01T10:06:45.684Z,7.53
2019-04-01T10:09:12.931Z,7.72
2019-04-01T10:11:40.694Z,8.98
2019-04-01T10:14:08.594Z,8.95
2019-04-01T10:16:36.900Z,7.87
2019-04-01T10:19:04.209Z,10.78
2019-04-01T10:21:31.434Z,9.15
2019-04-01T10:23:58.688Z,10.40
2019-04-01T10:26:26.146Z,9.50
2019-04-01T10:28:53.522Z,7.53
2019-04-01T10:31:20.854Z,10.30
2019-04-01T10:33:48.123Z,6.73
2019-04-01T10:36:15.379Z,8.28
2019-04-01T10:38:46.348Z,9.15
2019-04-01T10:41:12.568Z,9.13
2019-04-01T10:43:39.868Z,9.13
2019-04-01T10:46:07.159Z,9.60
2019-04-01T10:48:34.542Z,8.27
2019-04-01T10:51:01.938Z,9.53
2019-04-01T10:53:29.235Z,8.30
2019-04-01T10:55:56.516Z,10.10
2019-04-01T10:58:23.895Z,9.23
2019-04-01T11:00:51.335Z,8.03
2019-04-01T11:03:18.686Z,10.05
2019-04-01T11:05:45.943Z,9.27
2019-04-01T11:08:14.473Z,9.95
2019-04-01T11:10:41.678Z,10.10
2019-04-01T11:13:08.987Z,8.05
2019-04-01T11:15:36.400Z,10.43
2019-04-01T11:18:03.730Z,9.38
2019-04-01T11:20:31.086Z,10.05
2019-04-01T11:23:02.228Z,8.63
2019-04-01T11:25:28.847Z,9.13
2019-04-01T11:27:56.229Z,10.75
2019-04-01T11:30:23.680Z,7.97
2019-04-01T11:32:52.713Z,10.13
2019-04-01T11:35:20.073Z,7.58
2019-04-01T11:37:47.437Z,11.43
2019-04-01T11:40:14.846Z,9.70
2019-04-01T11:42:42.220Z,9.85
2019-04-01T11:45:11.180Z,7.87
2019-04-01T11:47:38.455Z,9.40
2019-04-01T11:50:07.447Z,8.00
2019-04-01T11:52:35.150Z,7.97
2019-04-01T11:55:06.147Z,9.03
2019-04-01T11:57:31.596Z,8.20
2019-04-01T11:59:58.922Z,8.28
2019-04-01T12:02:26.268Z,8.40
2019-04-01T12:04:53.635Z,9.70
2019-04-01T12:07:21.087Z,8.68
2019-04-01T12:09:51.994Z,8.13
2019-04-01T12:12:24.098Z,9.18
2019-04-01T12:14:46.898Z,7.40
2019-04-01T12:17:14.110Z,7.97
2019-04-01T12:19:41.631Z,10.08
2019-04-01T12:22:11.342Z,8.73
2019-04-01T12:24:40.175Z,9.45
2019-04-01T12:27:07.670Z,8.58
2019-04-01T12:29:35.044Z,9.68
2019-04-01T12:32:02.378Z,8.63
2019-04-01T12:34:29.655Z,8.95
2019-04-01T12:36:58.116Z,9.50
2019-04-01T12:39:26.279Z,8.53
2019-04-01T12:41:53.750Z,7.10
2019-04-01T12:44:21.000Z,10.32
2019-04-01T12:46:48.373Z,8.73
2019-04-01T12:49:15.763Z,7.77
2019-04-01T12:51:43.446Z,8.23
2019-04-01T12:54:10.766Z,8.13
2019-04-01T12:56:38.112Z,8.05
2019-04-01T12:59:05.363Z,6.22
2019-04-01T13:01:34.089Z,9.68
2019-04-01T13:04:04.179Z,9.00
2019-04-01T13:06:30.468Z,8.10
2019-04-01T13:08:57.823Z,7.45
2019-04-01T13:11:26.776Z,8.30
2019-04-01T13:13:54.180Z,6.40
2019-04-01T13:16:21.507Z,7.22
2019-04-01T13:18:48.956Z,8.53
2019-04-01T13:21:16.194Z,10.32
2019-04-01T13:23:43.455Z,9.38
2019-04-01T13:26:12.751Z,9.65
2019-04-01T13:28:42.396Z,8.53
2019-04-01T13:31:08.823Z,10.03
2019-04-01T13:33:36.041Z,10.78
2019-04-01T13:36:03.386Z,9.10
2019-04-01T13:38:33.772Z,7.65
2019-04-01T13:41:01.053Z,9.75
2019-04-01T13:43:28.331Z,7.97
2019-04-01T13:45:55.671Z,8.65
2019-04-01T13:48:22.977Z,5.90
2019-04-01T13:50:50.369Z,9.00
2019-04-01T13:53:17.645Z,8.30
2019-04-01T13:55:44.931Z,7.65
2019-04-01T13:58:12.396Z,9.30
2019-04-01T14:00:40.071Z,10.00
2019-04-01T14:03:10.937Z,8.98
2019-04-01T14:05:36.477Z,10.25
2019-04-01T14:08:06.026Z,9.18
2019-04-01T14:10:33.491Z,8.68
2019-04-01T14:13:02.510Z,8.65
2019-04-01T14:15:29.861Z,10.28
2019-04-01T14:17:57.153Z,8.45
2019-04-01T14:20:24.356Z,7.63
2019-04-01T14:22:53.586Z,8.08
2019-04-01T14:25:20.559Z,8.73
2019-04-01T14:27:48.105Z,8.63
2019-04-01T14:30:15.439Z,9.48
2019-04-01T14:32:42.667Z,7.90
2019-04-01T14:35:09.932Z,8.35
2019-04-01T14:37:37.365Z,8.03
2019-04-01T14:40:08.602Z,8.98
2019-04-01T14:42:37.258Z,7.87
2019-04-01T14:45:05.893Z,12.05
2019-04-01T14:47:35.095Z,8.17
2019-04-01T14:50:03.442Z,8.27
2019-04-01T14:52:32.966Z,7.90
2019-04-01T14:55:01.470Z,9.30
2019-04-01T14:57:29.403Z,7.92
2019-04-01T14:59:56.723Z,7.80
2019-04-01T15:02:24.212Z,8.50
2019-04-01T15:04:51.496Z,10.90
2019-04-01T15:07:18.951Z,9.18
2019-04-01T15:09:46.800Z,10.75
2019-04-01T15:12:14.207Z,8.98
2019-04-01T15:14:44.249Z,9.78
2019-04-01T15:17:12.130Z,11.85
2019-04-01T15:19:39.447Z,9.60
2019-04-01T15:22:06.887Z,10.18
2019-04-01T15:24:34.135Z,9.03
2019-04-01T15:27:01.490Z,8.33
2019-04-01T15:29:29.254Z,8.13
2019-04-01T15:31:56.539Z,10.32
2019-04-01T15:34:23.769Z,10.17
2019-04-01T15:36:51.025Z,10.43
2019-04-01T15:39:20.004Z,9.38
2019-04-01T15:41:52.327Z,10.70
2019-04-01T15:44:22.725Z,10.60
2019-04-01T15:46:51.799Z,8.13
2019-04-01T15:49:19.169Z,10.50
2019-04-01T15:51:53.934Z,7.55
2019-04-01T15:54:21.318Z,10.60
2019-04-01T15:56:48.691Z,9.73
2019-04-01T15:59:16.059Z,9.00
2019-04-01T16:01:43.315Z,9.70
2019-04-01T16:04:10.551Z,9.75
2019-04-01T16:06:37.806Z,8.20
2019-04-01T16:09:05.812Z,7.65
2019-04-01T16:11:33.014Z,11.57
2019-04-01T16:14:00.364Z,8.98
2019-04-01T16:16:27.712Z,10.05
2019-04-01T16:18:55.006Z,7.72
2019-04-01T16:21:24.020Z,8.13
2019-04-01T16:23:51.532Z,7.20
2019-04-01T16:26:18.811Z,8.63
2019-04-01T16:28:47.851Z,8.23
2019-04-01T16:31:15.368Z,8.38
2019-04-01T16:33:42.751Z,8.80
2019-04-01T16:36:10.044Z,8.25
2019-04-01T16:38:37.359Z,8.65
2019-04-01T16:41:05.802Z,8.50
2019-04-01T16:43:33.092Z,8.23
2019-04-01T16:46:00.306Z,10.82
2019-04-01T16:48:27.577Z,10.48
2019-04-01T16:50:55.497Z,8.35
2019-04-01T16:53:25.669Z,8.63
2019-04-01T16:55:53.047Z,9.58
2019-04-01T16:58:21.881Z,8.30
2019-04-01T17:01:13.610Z,10.80
2019-04-01T17:03:42.638Z,8.25
2019-04-01T17:06:10.051Z,10.78
2019-04-01T17:08:39.155Z,8.60
2019-04-01T17:11:06.488Z,9.00
2019-04-01T17:13:33.835Z,10.68
2019-04-01T17:16:01.798Z,8.83
2019-04-01T17:18:29.245Z,10.90
2019-04-01T17:20:56.495Z,10.53
2019-04-01T17:23:23.938Z,10.32
2019-04-01T17:25:51.378Z,10.43
2019-04-01T17:28:18.699Z,10.65
2019-04-01T17:30:46.709Z,10.08
2019-04-01T17:33:19.144Z,12.15
2019-04-01T17:35:51.741Z,9.27
2019-04-01T17:38:20.373Z,11.55
2019-04-01T17:40:59.363Z,8.80
2019-04-01T17:43:34.333Z,8.33
2019-04-01T17:46:04.533Z,9.30
2019-04-01T17:48:42.225Z,9.50
2019-04-01T17:51:17.473Z,9.23
2019-04-01T17:53:54.541Z,10.28
2019-04-01T17:56:32.003Z,9.77
2019-04-01T17:59:02.360Z,10.53
2019-04-01T18:01:35.574Z,9.40
2019-04-01T18:04:05.683Z,9.98
2019-04-01T18:06:42.890Z,10.03
2019-04-01T18:09:12.996Z,8.60
2019-04-01T18:11:47.934Z,11.55
2019-04-01T18:14:16.036Z,12.30
2019-04-01T18:16:49.667Z,11.88
2019-04-01T18:19:27.969Z,12.05
2019-04-01T18:25:07.361Z,9.78
2019-04-01T18:27:37.624Z,11.48
2019-04-01T18:30:07.682Z,10.15
2019-04-01T18:32:35.026Z,12.07
2019-04-01T18:35:03.974Z,10.20
2019-04-01T18:37:31.335Z,10.03
2019-04-01T18:39:58.618Z,10.38
2019-04-01T18:42:27.092Z,11.55
2019-04-01T18:44:54.499Z,13.53
2019-04-01T18:47:21.717Z,8.45
2019-04-01T18:49:49.016Z,10.05
2019-04-01T18:52:16.318Z,10.38
2019-04-01T18:54:43.633Z,10.25
2019-04-01T18:57:11.000Z,8.65
2019-04-01T18:59:38.422Z,11.93
2019-04-01T19:02:05.728Z,10.18
2019-04-01T19:04:34.310Z,13.25
2019-04-01T19:07:01.681Z,11.48
2019-04-01T19:09:32.287Z,9.80
2019-04-01T19:12:04.102Z,10.00
2019-04-01T19:14:27.056Z,11.48
2019-04-01T19:16:54.549Z,9.73
2019-04-01T19:19:21.884Z,13.35
2019-04-01T19:21:49.194Z,10.70
2019-04-01T19:24:16.460Z,11.50
2019-04-01T19:26:43.956Z,10.18
2019-04-01T19:29:11.332Z,8.93
2019-04-01T19:31:38.535Z,11.57
2019-04-01T19:34:07.164Z,10.15
2019-04-01T19:36:34.940Z,11.00
2019-04-01T19:39:05.094Z,12.37
2019-04-01T19:41:32.699Z,9.50
2019-04-01T19:44:00.071Z,12.80
2019-04-01T19:46:27.291Z,12.10
2019-04-01T19:48:54.516Z,11.50
2019-04-01T19:51:22.032Z,9.53
2019-04-01T19:53:49.221Z,11.65
2019-04-01T19:56:35.361Z,10.73
2019-04-01T19:59:03.222Z,12.28
2019-04-01T20:01:32.183Z,12.33
2019-04-01T20:03:59.491Z,12.17
2019-04-01T20:06:26.782Z,11.55
2019-04-01T20:08:54.058Z,12.65
2019-04-01T20:11:21.399Z,11.20
2019-04-01T20:13:48.671Z,12.05
2019-04-01T20:16:15.882Z,12.25
2019-04-01T20:18:43.098Z,12.58
2019-04-01T20:21:10.368Z,10.97
2019-04-01T20:23:37.589Z,12.60
2019-04-01T20:26:05.172Z,14.65
2019-04-01T20:28:32.501Z,12.75
2019-04-01T20:30:59.832Z,11.50
2019-04-01T20:33:27.247Z,12.75
2019-04-01T20:35:54.622Z,13.03
2019-04-01T20:38:21.855Z,12.65
2019-04-01T20:40:49.098Z,14.10
2019-04-01T20:43:16.413Z,13.22
2019-04-01T20:45:44.940Z,13.40
2019-04-01T20:48:12.264Z,14.53
2019-04-01T20:50:39.554Z,13.98
2019-04-01T20:53:06.945Z,16.02
2019-04-01T20:55:47.416Z,14.28
2019-04-01T20:58:03.281Z,14.33
2019-04-01T21:00:30.653Z,12.23
2019-04-01T21:02:58.043Z,13.60
2019-04-01T21:05:25.405Z,13.83
2019-04-01T21:07:52.619Z,13.35
2019-04-01T21:10:20.002Z,14.50
2019-04-01T21:12:47.199Z,16.67
2019-04-01T21:15:14.400Z,12.00
2019-04-01T21:17:41.780Z,14.87
2019-04-01T21:20:09.038Z,15.13
2019-04-01T21:22:36.829Z,15.85
2019-04-01T21:25:05.712Z,16.15
2019-04-01T21:27:32.905Z,14.45
2019-04-01T21:30:00.144Z,13.50
2019-04-01T21:32:27.431Z,14.00
2019-04-01T21:34:54.789Z,15.57
2019-04-01T21:37:22.027Z,14.68
2019-04-01T21:39:49.375Z,13.13
2019-04-01T21:42:16.668Z,13.57
2019-04-01T21:44:43.976Z,13.40
2019-04-01T21:47:12.794Z,14.47
2019-04-01T21:49:40.123Z,11.25
2019-04-01T21:52:07.396Z,13.57
2019-04-01T21:54:34.627Z,14.58
2019-04-01T21:57:01.987Z,12.00
2019-04-01T21:59:29.341Z,13.32
2019-04-01T22:01:56.667Z,12.63
2019-04-01T22:04:24.018Z,14.38
2019-04-01T22:06:51.308Z,13.40
2019-04-01T22:09:18.616Z,13.80
2019-04-01T22:11:45.844Z,11.38
2019-04-01T22:14:13.121Z,13.87
2019-04-01T22:16:40.362Z,12.45
2019-04-01T22:19:07.637Z,12.25
2019-04-01T22:21:36.216Z,12.78
2019-04-01T22:24:04.270Z,14.85
2019-04-01T22:26:31.813Z,12.88
2019-04-01T22:28:59.008Z,10.13
2019-04-01T22:31:27.178Z,12.80
2019-04-01T22:33:54.493Z,12.47
2019-04-01T22:36:30.577Z,12.50
2019-04-01T22:38:50.857Z,11.73
2019-04-01T22:41:18.240Z,11.80
2019-04-01T22:43:45.490Z,14.58
2019-04-01T22:46:12.719Z,12.88
2019-04-01T22:48:39.927Z,11.68
2019-04-01T22:51:08.530Z,12.95
2019-04-01T22:53:36.101Z,12.05
2019-04-01T22:56:03.455Z,12.83
2019-04-01T22:58:30.757Z,12.90
2019-04-01T23:00:58.137Z,12.70
2019-04-01T23:03:25.425Z,12.35
2019-04-01T23:05:55.467Z,10.90
2019-04-01T23:08:21.731Z,13.20
2019-04-01T23:10:49.033Z,16.13
2019-04-01T23:13:16.427Z,12.98
2019-04-01T23:15:44.148Z,12.37
2019-04-01T23:18:11.792Z,11.30
2019-04-01T23:20:39.890Z,13.45
2019-04-01T23:23:07.479Z,11.12
2019-04-01T23:25:34.806Z,12.97
2019-04-01T23:28:02.247Z,14.10
2019-04-01T23:30:29.640Z,14.10
2019-04-01T23:32:56.878Z,11.70
2019-04-01T23:35:24.843Z,12.65
2019-04-01T23:37:53.677Z,10.10
2019-04-01T23:40:20.905Z,12.70
2019-04-01T23:42:48.226Z,14.47
2019-04-01T23:45:15.428Z,15.10
2019-04-01T23:47:42.867Z,12.88
2019-04-01T23:50:10.201Z,10.23
2019-04-01T23:52:37.622Z,11.55
2019-04-01T23:55:05.190Z,13.38
2019-04-01T23:57:32.524Z,12.00
2019-04-01T23:59:59.891Z,11.80
